Ada, West Virginia
Current Conditions -  °F | °C
As of 8:52 PM on Saturday 25 Oct 2014 (Local Time) from KBLF Reporting Station
Few Clouds Few Clouds  
Wind Chill: 15°   Ceiling: Unl
Heat Index: 15°   Visibility: 10mi
Dew Point:   Wind: 13mph
Humidity: 62%   Direction: 260°W
Pressure: 29.98"   Gusts: NA
Location:  37.2994°N, 81.226°W
Report Text: KBLF 260052Z AUTO 26011KT 10SM FEW022 15/08 A2998 RMK AO2 SLP142 T01500078
Loading
Personal Weather Stations






























Interactive Weather Map
Tropical Storm Tracking
New forecast layout! Learn more

10-Day Weather Forecast

Advertisements
Track Severe Weather on mobile